sensor_id;sensor_type;location;lat;lon;timestamp;temperature;humidity
11666;DHT22;5889;51.350;6.708;2023-07-29T00:01:42;20.20;99.90
11666;DHT22;5889;51.350;6.708;2023-07-29T00:04:11;20.20;99.90
11666;DHT22;5889;51.350;6.708;2023-07-29T00:06:38;20.20;99.90
11666;DHT22;5889;51.350;6.708;2023-07-29T00:09:05;20.10;99.90
11666;DHT22;5889;51.350;6.708;2023-07-29T00:11:32;20.20;99.90
11666;DHT22;5889;51.350;6.708;2023-07-29T00:13:59;20.10;99.90
11666;DHT22;5889;51.350;6.708;2023-07-29T00:16:26;20.10;99.90
11666;DHT22;5889;51.350;6.708;2023-07-29T00:18:53;20.10;99.90
11666;DHT22;5889;51.350;6.708;2023-07-29T00:21:21;20.10;99.90
11666;DHT22;5889;51.350;6.708;2023-07-29T00:23:48;20.10;99.90
11666;DHT22;5889;51.350;6.708;2023-07-29T00:26:15;20.20;99.90
11666;DHT22;5889;51.350;6.708;2023-07-29T00:28:42;20.10;99.90
11666;DHT22;5889;51.350;6.708;2023-07-29T00:31:09;20.10;99.90
11666;DHT22;5889;51.350;6.708;2023-07-29T00:33:36;20.10;99.90
11666;DHT22;5889;51.350;6.708;2023-07-29T00:36:04;20.10;99.90
11666;DHT22;5889;51.350;6.708;2023-07-29T00:38:32;20.10;99.90
11666;DHT22;5889;51.350;6.708;2023-07-29T00:41:00;20.10;99.90
11666;DHT22;5889;51.350;6.708;2023-07-29T00:43:28;20.20;99.90
11666;DHT22;5889;51.350;6.708;2023-07-29T00:45:56;20.10;99.90
11666;DHT22;5889;51.350;6.708;2023-07-29T00:48:23;20.20;99.90
11666;DHT22;5889;51.350;6.708;2023-07-29T00:50:51;20.20;99.90
11666;DHT22;5889;51.350;6.708;2023-07-29T00:53:18;20.20;99.90
11666;DHT22;5889;51.350;6.708;2023-07-29T00:55:46;20.20;99.90
11666;DHT22;5889;51.350;6.708;2023-07-29T00:58:13;20.30;99.90
11666;DHT22;5889;51.350;6.708;2023-07-29T01:00:41;20.30;99.90
11666;DHT22;5889;51.350;6.708;2023-07-29T01:03:08;20.30;99.90
11666;DHT22;5889;51.350;6.708;2023-07-29T01:05:40;20.30;99.90
11666;DHT22;5889;51.350;6.708;2023-07-29T01:08:15;20.30;99.90
11666;DHT22;5889;51.350;6.708;2023-07-29T01:10:49;20.30;99.90
11666;DHT22;5889;51.350;6.708;2023-07-29T01:13:22;20.30;99.90
11666;DHT22;5889;51.350;6.708;2023-07-29T01:15:53;20.30;99.90
11666;DHT22;5889;51.350;6.708;2023-07-29T01:18:24;20.30;99.90
11666;DHT22;5889;51.350;6.708;2023-07-29T01:20:54;20.30;99.90
11666;DHT22;5889;51.350;6.708;2023-07-29T01:23:26;20.40;99.90
11666;DHT22;5889;51.350;6.708;2023-07-29T01:25:53;20.40;99.90
11666;DHT22;5889;51.350;6.708;2023-07-29T01:28:20;20.40;99.90
11666;DHT22;5889;51.350;6.708;2023-07-29T01:30:49;20.30;99.90
11666;DHT22;5889;51.350;6.708;2023-07-29T01:33:24;20.40;99.90
11666;DHT22;5889;51.350;6.708;2023-07-29T01:35:57;20.40;99.90
11666;DHT22;5889;51.350;6.708;2023-07-29T01:38:29;20.40;99.90
11666;DHT22;5889;51.350;6.708;2023-07-29T01:40:58;20.40;99.90
11666;DHT22;5889;51.350;6.708;2023-07-29T01:43:28;20.40;99.90
11666;DHT22;5889;51.350;6.708;2023-07-29T01:45:55;20.40;99.90
11666;DHT22;5889;51.350;6.708;2023-07-29T01:48:22;20.40;99.90
11666;DHT22;5889;51.350;6.708;2023-07-29T01:50:50;20.40;99.90
11666;DHT22;5889;51.350;6.708;2023-07-29T01:53:17;20.40;99.90
11666;DHT22;5889;51.350;6.708;2023-07-29T01:55:45;20.40;99.90
11666;DHT22;5889;51.350;6.708;2023-07-29T01:58:12;20.40;99.90
11666;DHT22;5889;51.350;6.708;2023-07-29T02:00:39;20.40;99.90
11666;DHT22;5889;51.350;6.708;2023-07-29T02:03:06;20.40;99.90
11666;DHT22;5889;51.350;6.708;2023-07-29T02:05:33;20.40;99.90
11666;DHT22;5889;51.350;6.708;2023-07-29T02:08:00;20.40;99.90
11666;DHT22;5889;51.350;6.708;2023-07-29T02:10:27;20.40;99.90
11666;DHT22;5889;51.350;6.708;2023-07-29T02:12:56;20.40;99.90
11666;DHT22;5889;51.350;6.708;2023-07-29T02:15:23;20.40;99.90
11666;DHT22;5889;51.350;6.708;2023-07-29T02:17:50;20.40;99.90
11666;DHT22;5889;51.350;6.708;2023-07-29T02:20:18;20.40;99.90
11666;DHT22;5889;51.350;6.708;2023-07-29T02:22:45;20.40;99.90
11666;DHT22;5889;51.350;6.708;2023-07-29T02:25:14;20.40;99.90
11666;DHT22;5889;51.350;6.708;2023-07-29T02:27:41;20.40;99.90
11666;DHT22;5889;51.350;6.708;2023-07-29T02:30:10;20.40;99.90
11666;DHT22;5889;51.350;6.708;2023-07-29T02:32:38;20.30;99.90
11666;DHT22;5889;51.350;6.708;2023-07-29T02:35:05;20.30;99.90
11666;DHT22;5889;51.350;6.708;2023-07-29T02:37:32;20.30;99.90
11666;DHT22;5889;51.350;6.708;2023-07-29T02:40:00;20.30;99.90
11666;DHT22;5889;51.350;6.708;2023-07-29T02:42:27;20.30;99.90
11666;DHT22;5889;51.350;6.708;2023-07-29T02:44:54;20.30;99.90
11666;DHT22;5889;51.350;6.708;2023-07-29T02:47:22;20.30;99.90
11666;DHT22;5889;51.350;6.708;2023-07-29T02:49:49;20.30;99.90
11666;DHT22;5889;51.350;6.708;2023-07-29T02:52:16;20.30;99.90
11666;DHT22;5889;51.350;6.708;2023-07-29T02:54:43;20.20;99.90
11666;DHT22;5889;51.350;6.708;2023-07-29T02:57:10;20.20;99.90
11666;DHT22;5889;51.350;6.708;2023-07-29T02:59:37;20.20;99.90
11666;DHT22;5889;51.350;6.708;2023-07-29T03:02:04;20.20;99.90
11666;DHT22;5889;51.350;6.708;2023-07-29T03:04:32;20.20;99.90
11666;DHT22;5889;51.350;6.708;2023-07-29T03:06:59;20.10;99.90
11666;DHT22;5889;51.350;6.708;2023-07-29T03:09:28;20.20;99.90
11666;DHT22;5889;51.350;6.708;2023-07-29T03:11:55;20.10;99.90
11666;DHT22;5889;51.350;6.708;2023-07-29T03:14:22;20.10;99.90
11666;DHT22;5889;51.350;6.708;2023-07-29T03:16:49;20.10;99.90
11666;DHT22;5889;51.350;6.708;2023-07-29T03:19:16;20.10;99.90
11666;DHT22;5889;51.350;6.708;2023-07-29T03:21:44;20.10;99.90
11666;DHT22;5889;51.350;6.708;2023-07-29T03:24:11;20.10;99.90
11666;DHT22;5889;51.350;6.708;2023-07-29T03:26:40;20.10;99.90
11666;DHT22;5889;51.350;6.708;2023-07-29T03:29:07;20.10;99.90
11666;DHT22;5889;51.350;6.708;2023-07-29T03:31:34;20.00;99.90
11666;DHT22;5889;51.350;6.708;2023-07-29T03:34:01;20.00;99.90
11666;DHT22;5889;51.350;6.708;2023-07-29T03:36:28;20.00;99.90
11666;DHT22;5889;51.350;6.708;2023-07-29T03:38:56;20.00;99.90
11666;DHT22;5889;51.350;6.708;2023-07-29T03:41:24;20.10;99.90
11666;DHT22;5889;51.350;6.708;2023-07-29T03:43:51;20.10;99.90
11666;DHT22;5889;51.350;6.708;2023-07-29T03:46:18;20.00;99.90
11666;DHT22;5889;51.350;6.708;2023-07-29T03:48:47;20.00;99.90
11666;DHT22;5889;51.350;6.708;2023-07-29T03:51:14;20.10;99.90
11666;DHT22;5889;51.350;6.708;2023-07-29T03:53:41;20.10;99.90
11666;DHT22;5889;51.350;6.708;2023-07-29T03:56:09;20.00;99.90
11666;DHT22;5889;51.350;6.708;2023-07-29T03:58:36;20.00;99.90
11666;DHT22;5889;51.350;6.708;2023-07-29T04:01:03;20.00;99.90
11666;DHT22;5889;51.350;6.708;2023-07-29T04:03:32;19.90;99.90
11666;DHT22;5889;51.350;6.708;2023-07-29T04:05:59;19.90;99.90
11666;DHT22;5889;51.350;6.708;2023-07-29T04:08:26;19.80;99.90
11666;DHT22;5889;51.350;6.708;2023-07-29T04:10:53;19.80;99.90
11666;DHT22;5889;51.350;6.708;2023-07-29T04:13:22;19.80;99.90
11666;DHT22;5889;51.350;6.708;2023-07-29T04:15:49;19.80;99.90
11666;DHT22;5889;51.350;6.708;2023-07-29T04:18:16;19.80;99.90
11666;DHT22;5889;51.350;6.708;2023-07-29T04:20:43;19.80;99.90
11666;DHT22;5889;51.350;6.708;2023-07-29T04:23:10;19.70;99.90
11666;DHT22;5889;51.350;6.708;2023-07-29T04:25:37;19.60;99.90
11666;DHT22;5889;51.350;6.708;2023-07-29T04:28:04;19.60;99.90
11666;DHT22;5889;51.350;6.708;2023-07-29T04:30:32;19.60;99.90
11666;DHT22;5889;51.350;6.708;2023-07-29T04:32:59;19.60;99.90
11666;DHT22;5889;51.350;6.708;2023-07-29T04:35:26;19.60;99.90
11666;DHT22;5889;51.350;6.708;2023-07-29T04:37:53;19.50;99.90
11666;DHT22;5889;51.350;6.708;2023-07-29T04:40:20;19.50;99.90
11666;DHT22;5889;51.350;6.708;2023-07-29T04:42:48;19.50;99.90
11666;DHT22;5889;51.350;6.708;2023-07-29T04:45:17;19.50;99.90
11666;DHT22;5889;51.350;6.708;2023-07-29T04:47:45;19.50;99.90
11666;DHT22;5889;51.350;6.708;2023-07-29T04:50:12;19.50;99.90
11666;DHT22;5889;51.350;6.708;2023-07-29T04:52:39;19.40;99.90
11666;DHT22;5889;51.350;6.708;2023-07-29T04:55:06;19.40;99.90
11666;DHT22;5889;51.350;6.708;2023-07-29T04:57:33;19.50;99.90
11666;DHT22;5889;51.350;6.708;2023-07-29T05:00:00;19.50;99.90
11666;DHT22;5889;51.350;6.708;2023-07-29T05:02:28;19.50;99.90
11666;DHT22;5889;51.350;6.708;2023-07-29T05:04:56;19.50;99.90
11666;DHT22;5889;51.350;6.708;2023-07-29T05:07:23;19.60;99.90
11666;DHT22;5889;51.350;6.708;2023-07-29T05:09:50;19.50;99.90
11666;DHT22;5889;51.350;6.708;2023-07-29T05:12:17;19.60;99.90
11666;DHT22;5889;51.350;6.708;2023-07-29T05:14:44;19.70;99.90
11666;DHT22;5889;51.350;6.708;2023-07-29T05:17:11;19.70;99.90
11666;DHT22;5889;51.350;6.708;2023-07-29T05:19:38;19.70;99.90
11666;DHT22;5889;51.350;6.708;2023-07-29T05:22:06;19.60;99.90
11666;DHT22;5889;51.350;6.708;2023-07-29T05:24:33;19.60;99.90
11666;DHT22;5889;51.350;6.708;2023-07-29T05:27:00;19.60;99.90
11666;DHT22;5889;51.350;6.708;2023-07-29T05:29:28;19.60;99.90
11666;DHT22;5889;51.350;6.708;2023-07-29T05:31:57;19.60;99.90
11666;DHT22;5889;51.350;6.708;2023-07-29T05:34:24;19.60;99.90
11666;DHT22;5889;51.350;6.708;2023-07-29T05:36:51;19.60;99.90
11666;DHT22;5889;51.350;6.708;2023-07-29T05:39:20;19.50;99.90
11666;DHT22;5889;51.350;6.708;2023-07-29T05:41:50;19.50;99.90
11666;DHT22;5889;51.350;6.708;2023-07-29T05:44:17;19.40;99.90
11666;DHT22;5889;51.350;6.708;2023-07-29T05:46:43;19.40;99.90
11666;DHT22;5889;51.350;6.708;2023-07-29T05:49:10;19.40;99.90
11666;DHT22;5889;51.350;6.708;2023-07-29T05:51:37;19.40;99.90
11666;DHT22;5889;51.350;6.708;2023-07-29T05:54:04;19.40;99.90
11666;DHT22;5889;51.350;6.708;2023-07-29T05:56:33;19.50;99.90
11666;DHT22;5889;51.350;6.708;2023-07-29T05:59:00;19.50;99.90
11666;DHT22;5889;51.350;6.708;2023-07-29T06:01:27;19.50;99.90
11666;DHT22;5889;51.350;6.708;2023-07-29T06:03:54;19.50;99.90
11666;DHT22;5889;51.350;6.708;2023-07-29T06:06:21;19.50;99.90
11666;DHT22;5889;51.350;6.708;2023-07-29T06:08:49;19.50;99.90
11666;DHT22;5889;51.350;6.708;2023-07-29T06:11:16;19.50;99.90
11666;DHT22;5889;51.350;6.708;2023-07-29T06:13:45;19.60;99.90
11666;DHT22;5889;51.350;6.708;2023-07-29T06:16:12;19.70;99.90
11666;DHT22;5889;51.350;6.708;2023-07-29T06:18:39;19.80;99.90
11666;DHT22;5889;51.350;6.708;2023-07-29T06:21:06;19.80;99.90
11666;DHT22;5889;51.350;6.708;2023-07-29T06:23:33;19.80;99.90
11666;DHT22;5889;51.350;6.708;2023-07-29T06:26:00;19.80;99.90
11666;DHT22;5889;51.350;6.708;2023-07-29T06:28:30;19.80;99.90
11666;DHT22;5889;51.350;6.708;2023-07-29T06:31:01;19.80;99.90
11666;DHT22;5889;51.350;6.708;2023-07-29T06:33:28;19.80;99.90
11666;DHT22;5889;51.350;6.708;2023-07-29T06:35:55;19.90;99.90
11666;DHT22;5889;51.350;6.708;2023-07-29T06:38:22;20.00;99.90
11666;DHT22;5889;51.350;6.708;2023-07-29T06:40:49;20.10;99.90
11666;DHT22;5889;51.350;6.708;2023-07-29T06:43:16;20.30;99.90
11666;DHT22;5889;51.350;6.708;2023-07-29T06:45:43;20.40;99.90
11666;DHT22;5889;51.350;6.708;2023-07-29T06:48:11;20.60;99.90
11666;DHT22;5889;51.350;6.708;2023-07-29T06:50:41;20.70;99.90
11666;DHT22;5889;51.350;6.708;2023-07-29T06:53:11;20.70;99.90
11666;DHT22;5889;51.350;6.708;2023-07-29T06:55:38;20.70;99.90
11666;DHT22;5889;51.350;6.708;2023-07-29T06:58:05;20.70;99.90
11666;DHT22;5889;51.350;6.708;2023-07-29T07:00:33;20.70;99.90
11666;DHT22;5889;51.350;6.708;2023-07-29T07:03:00;20.80;99.90
11666;DHT22;5889;51.350;6.708;2023-07-29T07:05:28;20.80;99.90
11666;DHT22;5889;51.350;6.708;2023-07-29T07:07:55;20.90;99.90
11666;DHT22;5889;51.350;6.708;2023-07-29T07:10:22;21.00;99.90
11666;DHT22;5889;51.350;6.708;2023-07-29T07:12:49;21.20;99.90
11666;DHT22;5889;51.350;6.708;2023-07-29T07:15:16;21.30;99.90
11666;DHT22;5889;51.350;6.708;2023-07-29T07:17:43;21.40;99.90
11666;DHT22;5889;51.350;6.708;2023-07-29T07:20:11;21.50;99.90
11666;DHT22;5889;51.350;6.708;2023-07-29T07:22:39;21.50;99.90
11666;DHT22;5889;51.350;6.708;2023-07-29T07:25:07;21.50;99.90
11666;DHT22;5889;51.350;6.708;2023-07-29T07:27:34;21.60;99.90
11666;DHT22;5889;51.350;6.708;2023-07-29T07:30:01;21.80;99.90
11666;DHT22;5889;51.350;6.708;2023-07-29T07:32:29;22.00;99.90
11666;DHT22;5889;51.350;6.708;2023-07-29T07:34:55;22.00;99.90
11666;DHT22;5889;51.350;6.708;2023-07-29T07:37:22;21.80;99.90
11666;DHT22;5889;51.350;6.708;2023-07-29T07:39:51;21.70;99.90
11666;DHT22;5889;51.350;6.708;2023-07-29T07:42:18;21.60;99.90
11666;DHT22;5889;51.350;6.708;2023-07-29T07:44:45;21.70;99.90
11666;DHT22;5889;51.350;6.708;2023-07-29T07:47:15;21.80;99.90
11666;DHT22;5889;51.350;6.708;2023-07-29T07:49:42;21.80;99.90
11666;DHT22;5889;51.350;6.708;2023-07-29T07:52:09;21.90;99.90
11666;DHT22;5889;51.350;6.708;2023-07-29T07:54:36;22.10;99.90
11666;DHT22;5889;51.350;6.708;2023-07-29T07:57:05;22.50;99.90
11666;DHT22;5889;51.350;6.708;2023-07-29T07:59:32;22.70;99.90
11666;DHT22;5889;51.350;6.708;2023-07-29T08:01:59;23.00;99.90
11666;DHT22;5889;51.350;6.708;2023-07-29T08:04:27;23.10;99.90
11666;DHT22;5889;51.350;6.708;2023-07-29T08:06:54;23.00;99.90
11666;DHT22;5889;51.350;6.708;2023-07-29T08:09:20;22.90;99.90
11666;DHT22;5889;51.350;6.708;2023-07-29T08:11:47;22.70;99.90
11666;DHT22;5889;51.350;6.708;2023-07-29T08:14:16;22.80;99.90
11666;DHT22;5889;51.350;6.708;2023-07-29T08:16:43;22.90;99.90
11666;DHT22;5889;51.350;6.708;2023-07-29T08:19:10;22.90;99.90
11666;DHT22;5889;51.350;6.708;2023-07-29T08:21:37;23.00;99.90
11666;DHT22;5889;51.350;6.708;2023-07-29T08:24:04;23.20;99.90
11666;DHT22;5889;51.350;6.708;2023-07-29T08:26:32;23.40;99.90
11666;DHT22;5889;51.350;6.708;2023-07-29T08:28:59;23.50;99.90
11666;DHT22;5889;51.350;6.708;2023-07-29T08:31:27;23.60;99.90
11666;DHT22;5889;51.350;6.708;2023-07-29T08:33:54;23.90;99.90
11666;DHT22;5889;51.350;6.708;2023-07-29T08:36:21;23.80;99.90
11666;DHT22;5889;51.350;6.708;2023-07-29T08:38:48;23.90;99.90
11666;DHT22;5889;51.350;6.708;2023-07-29T08:41:19;24.00;99.90
11666;DHT22;5889;51.350;6.708;2023-07-29T08:43:52;24.00;99.90
11666;DHT22;5889;51.350;6.708;2023-07-29T08:46:19;24.20;99.90
11666;DHT22;5889;51.350;6.708;2023-07-29T08:48:47;24.40;99.90
11666;DHT22;5889;51.350;6.708;2023-07-29T08:51:15;24.60;99.90
11666;DHT22;5889;51.350;6.708;2023-07-29T08:53:44;24.80;99.90
11666;DHT22;5889;51.350;6.708;2023-07-29T08:56:11;24.60;99.90
11666;DHT22;5889;51.350;6.708;2023-07-29T08:58:39;24.50;99.90
11666;DHT22;5889;51.350;6.708;2023-07-29T09:01:06;24.40;99.90
11666;DHT22;5889;51.350;6.708;2023-07-29T09:03:33;24.40;99.90
11666;DHT22;5889;51.350;6.708;2023-07-29T09:06:02;24.40;99.90
11666;DHT22;5889;51.350;6.708;2023-07-29T09:08:29;24.30;99.90
11666;DHT22;5889;51.350;6.708;2023-07-29T09:11:00;24.30;99.90
11666;DHT22;5889;51.350;6.708;2023-07-29T09:13:27;24.20;99.90
11666;DHT22;5889;51.350;6.708;2023-07-29T09:15:54;24.10;99.90
11666;DHT22;5889;51.350;6.708;2023-07-29T09:18:22;24.00;99.90
11666;DHT22;5889;51.350;6.708;2023-07-29T09:20:50;23.90;99.90
11666;DHT22;5889;51.350;6.708;2023-07-29T09:23:18;23.80;99.90
11666;DHT22;5889;51.350;6.708;2023-07-29T09:25:46;23.80;99.90
11666;DHT22;5889;51.350;6.708;2023-07-29T09:28:15;23.80;99.90
11666;DHT22;5889;51.350;6.708;2023-07-29T09:30:44;23.70;99.90
11666;DHT22;5889;51.350;6.708;2023-07-29T09:33:11;23.60;99.90
11666;DHT22;5889;51.350;6.708;2023-07-29T09:35:39;23.50;99.90
11666;DHT22;5889;51.350;6.708;2023-07-29T09:38:06;23.40;99.90
11666;DHT22;5889;51.350;6.708;2023-07-29T09:40:39;23.40;99.90
11666;DHT22;5889;51.350;6.708;2023-07-29T09:43:08;23.40;99.90
11666;DHT22;5889;51.350;6.708;2023-07-29T09:45:36;23.50;99.90
11666;DHT22;5889;51.350;6.708;2023-07-29T09:48:04;23.60;99.90
11666;DHT22;5889;51.350;6.708;2023-07-29T09:50:35;23.70;99.90
11666;DHT22;5889;51.350;6.708;2023-07-29T09:53:02;23.80;99.90
11666;DHT22;5889;51.350;6.708;2023-07-29T09:55:32;24.00;99.90
11666;DHT22;5889;51.350;6.708;2023-07-29T09:58:01;24.20;99.90
11666;DHT22;5889;51.350;6.708;2023-07-29T10:00:32;24.60;99.90
11666;DHT22;5889;51.350;6.708;2023-07-29T10:03:00;25.10;99.90
11666;DHT22;5889;51.350;6.708;2023-07-29T10:05:27;25.30;99.90
11666;DHT22;5889;51.350;6.708;2023-07-29T10:07:55;25.50;99.90
11666;DHT22;5889;51.350;6.708;2023-07-29T10:10:22;25.80;99.90
11666;DHT22;5889;51.350;6.708;2023-07-29T10:12:50;26.00;99.90
11666;DHT22;5889;51.350;6.708;2023-07-29T10:15:19;26.00;99.90
11666;DHT22;5889;51.350;6.708;2023-07-29T10:17:48;25.90;99.90
11666;DHT22;5889;51.350;6.708;2023-07-29T10:20:16;25.80;99.90
11666;DHT22;5889;51.350;6.708;2023-07-29T10:22:46;25.70;99.90
11666;DHT22;5889;51.350;6.708;2023-07-29T10:25:16;25.50;99.90
11666;DHT22;5889;51.350;6.708;2023-07-29T10:27:48;25.50;99.90
11666;DHT22;5889;51.350;6.708;2023-07-29T10:30:15;25.30;99.90
11666;DHT22;5889;51.350;6.708;2023-07-29T10:32:44;25.20;99.90
11666;DHT22;5889;51.350;6.708;2023-07-29T10:35:11;25.00;99.90
11666;DHT22;5889;51.350;6.708;2023-07-29T10:37:39;24.80;99.90
11666;DHT22;5889;51.350;6.708;2023-07-29T10:40:08;24.80;99.90
11666;DHT22;5889;51.350;6.708;2023-07-29T10:42:36;24.80;99.90
11666;DHT22;5889;51.350;6.708;2023-07-29T10:45:19;24.80;99.90
11666;DHT22;5889;51.350;6.708;2023-07-29T10:47:48;25.30;99.90
11666;DHT22;5889;51.350;6.708;2023-07-29T10:50:19;25.50;99.90
11666;DHT22;5889;51.350;6.708;2023-07-29T10:52:49;25.60;99.90
11666;DHT22;5889;51.350;6.708;2023-07-29T10:55:28;25.90;99.90
11666;DHT22;5889;51.350;6.708;2023-07-29T10:58:06;26.10;99.90
11666;DHT22;5889;51.350;6.708;2023-07-29T11:00:33;26.30;99.40
11666;DHT22;5889;51.350;6.708;2023-07-29T11:03:03;26.30;99.80
11666;DHT22;5889;51.350;6.708;2023-07-29T11:05:46;26.50;99.20
11666;DHT22;5889;51.350;6.708;2023-07-29T11:08:21;26.20;98.60
11666;DHT22;5889;51.350;6.708;2023-07-29T11:10:59;25.80;99.20
11666;DHT22;5889;51.350;6.708;2023-07-29T11:13:27;25.60;99.70
11666;DHT22;5889;51.350;6.708;2023-07-29T11:15:55;25.50;99.90
11666;DHT22;5889;51.350;6.708;2023-07-29T11:18:27;25.30;99.90
11666;DHT22;5889;51.350;6.708;2023-07-29T11:20:55;25.10;99.90
11666;DHT22;5889;51.350;6.708;2023-07-29T11:23:28;25.10;99.90
11666;DHT22;5889;51.350;6.708;2023-07-29T11:25:55;25.20;99.90
11666;DHT22;5889;51.350;6.708;2023-07-29T11:28:22;25.10;99.90
11666;DHT22;5889;51.350;6.708;2023-07-29T11:30:49;25.20;99.90
11666;DHT22;5889;51.350;6.708;2023-07-29T11:33:18;25.50;99.90
11666;DHT22;5889;51.350;6.708;2023-07-29T11:35:47;25.90;99.70
11666;DHT22;5889;51.350;6.708;2023-07-29T11:38:18;26.10;99.20
11666;DHT22;5889;51.350;6.708;2023-07-29T11:40:58;26.10;98.70
11666;DHT22;5889;51.350;6.708;2023-07-29T11:43:25;26.10;98.70
11666;DHT22;5889;51.350;6.708;2023-07-29T11:45:53;26.20;98.80
11666;DHT22;5889;51.350;6.708;2023-07-29T11:48:27;26.40;97.90
11666;DHT22;5889;51.350;6.708;2023-07-29T11:50:55;26.50;98.00
11666;DHT22;5889;51.350;6.708;2023-07-29T11:53:26;26.50;97.70
11666;DHT22;5889;51.350;6.708;2023-07-29T11:55:54;26.40;97.40
11666;DHT22;5889;51.350;6.708;2023-07-29T11:58:21;26.30;97.60
11666;DHT22;5889;51.350;6.708;2023-07-29T12:00:49;26.20;97.20
11666;DHT22;5889;51.350;6.708;2023-07-29T12:03:18;26.10;97.50
11666;DHT22;5889;51.350;6.708;2023-07-29T12:05:45;26.30;97.90
11666;DHT22;5889;51.350;6.708;2023-07-29T12:08:13;26.50;97.70
11666;DHT22;5889;51.350;6.708;2023-07-29T12:10:41;26.80;98.10
11666;DHT22;5889;51.350;6.708;2023-07-29T12:13:08;27.10;97.80
11666;DHT22;5889;51.350;6.708;2023-07-29T12:15:38;27.00;97.60
11666;DHT22;5889;51.350;6.708;2023-07-29T12:18:05;26.80;97.60
11666;DHT22;5889;51.350;6.708;2023-07-29T12:20:32;26.40;97.60
11666;DHT22;5889;51.350;6.708;2023-07-29T12:23:00;26.10;98.80
11666;DHT22;5889;51.350;6.708;2023-07-29T12:25:30;26.00;99.10
11666;DHT22;5889;51.350;6.708;2023-07-29T12:28:03;26.20;99.60
11666;DHT22;5889;51.350;6.708;2023-07-29T12:30:31;26.70;98.90
11666;DHT22;5889;51.350;6.708;2023-07-29T12:32:57;27.10;98.80
11666;DHT22;5889;51.350;6.708;2023-07-29T12:35:33;27.40;97.80
11666;DHT22;5889;51.350;6.708;2023-07-29T12:38:00;27.70;97.10
11666;DHT22;5889;51.350;6.708;2023-07-29T12:40:29;27.70;96.90
11666;DHT22;5889;51.350;6.708;2023-07-29T12:42:56;27.90;96.40
11666;DHT22;5889;51.350;6.708;2023-07-29T12:45:23;27.80;96.10
11666;DHT22;5889;51.350;6.708;2023-07-29T12:47:52;27.50;96.30
11666;DHT22;5889;51.350;6.708;2023-07-29T12:50:20;27.30;96.80
11666;DHT22;5889;51.350;6.708;2023-07-29T12:52:47;27.50;97.60
11666;DHT22;5889;51.350;6.708;2023-07-29T12:55:15;28.00;97.10
11666;DHT22;5889;51.350;6.708;2023-07-29T12:57:43;28.10;95.90
11666;DHT22;5889;51.350;6.708;2023-07-29T13:00:11;27.90;96.10
11666;DHT22;5889;51.350;6.708;2023-07-29T13:02:38;27.70;96.10
11666;DHT22;5889;51.350;6.708;2023-07-29T13:05:08;27.50;96.40
11666;DHT22;5889;51.350;6.708;2023-07-29T13:07:36;27.40;96.20
11666;DHT22;5889;51.350;6.708;2023-07-29T13:10:04;27.20;96.20
11666;DHT22;5889;51.350;6.708;2023-07-29T13:12:31;27.10;96.50
11666;DHT22;5889;51.350;6.708;2023-07-29T13:14:59;26.90;96.70
11666;DHT22;5889;51.350;6.708;2023-07-29T13:17:26;26.70;96.90
11666;DHT22;5889;51.350;6.708;2023-07-29T13:19:53;26.50;96.70
11666;DHT22;5889;51.350;6.708;2023-07-29T13:22:21;26.30;97.00
11666;DHT22;5889;51.350;6.708;2023-07-29T13:24:48;26.10;97.40
11666;DHT22;5889;51.350;6.708;2023-07-29T13:27:15;25.90;97.30
11666;DHT22;5889;51.350;6.708;2023-07-29T13:29:42;25.70;97.60
11666;DHT22;5889;51.350;6.708;2023-07-29T13:32:11;25.50;98.00
11666;DHT22;5889;51.350;6.708;2023-07-29T13:34:38;25.40;98.60
11666;DHT22;5889;51.350;6.708;2023-07-29T13:37:06;25.20;99.40
11666;DHT22;5889;51.350;6.708;2023-07-29T13:39:32;25.00;99.90
11666;DHT22;5889;51.350;6.708;2023-07-29T13:42:00;24.70;99.90
11666;DHT22;5889;51.350;6.708;2023-07-29T13:44:26;24.50;99.90
11666;DHT22;5889;51.350;6.708;2023-07-29T13:46:56;24.30;99.90
11666;DHT22;5889;51.350;6.708;2023-07-29T13:49:25;24.10;99.90
11666;DHT22;5889;51.350;6.708;2023-07-29T13:51:52;23.90;99.90
11666;DHT22;5889;51.350;6.708;2023-07-29T13:54:19;23.80;99.90
11666;DHT22;5889;51.350;6.708;2023-07-29T13:56:47;23.70;99.90
11666;DHT22;5889;51.350;6.708;2023-07-29T13:59:14;23.60;99.90
11666;DHT22;5889;51.350;6.708;2023-07-29T14:01:41;23.60;99.90
11666;DHT22;5889;51.350;6.708;2023-07-29T14:04:08;23.60;99.90
11666;DHT22;5889;51.350;6.708;2023-07-29T14:06:36;23.60;99.90
11666;DHT22;5889;51.350;6.708;2023-07-29T14:09:03;23.80;99.90
11666;DHT22;5889;51.350;6.708;2023-07-29T14:11:30;24.20;99.90
11666;DHT22;5889;51.350;6.708;2023-07-29T14:13:57;24.50;99.90
11666;DHT22;5889;51.350;6.708;2023-07-29T14:16:24;24.80;99.90
11666;DHT22;5889;51.350;6.708;2023-07-29T14:18:51;25.10;99.90
11666;DHT22;5889;51.350;6.708;2023-07-29T14:21:18;25.40;99.90
11666;DHT22;5889;51.350;6.708;2023-07-29T14:23:47;25.70;99.90
11666;DHT22;5889;51.350;6.708;2023-07-29T14:26:14;25.80;99.90
11666;DHT22;5889;51.350;6.708;2023-07-29T14:28:41;25.90;99.90
11666;DHT22;5889;51.350;6.708;2023-07-29T14:31:09;25.80;99.90
11666;DHT22;5889;51.350;6.708;2023-07-29T14:33:36;25.80;99.90
11666;DHT22;5889;51.350;6.708;2023-07-29T14:36:03;25.80;99.90
11666;DHT22;5889;51.350;6.708;2023-07-29T14:38:33;25.60;99.90
11666;DHT22;5889;51.350;6.708;2023-07-29T14:41:02;25.40;99.90
11666;DHT22;5889;51.350;6.708;2023-07-29T14:43:30;25.10;99.90
11666;DHT22;5889;51.350;6.708;2023-07-29T14:45:57;24.80;99.90
11666;DHT22;5889;51.350;6.708;2023-07-29T14:48:24;24.60;99.90
11666;DHT22;5889;51.350;6.708;2023-07-29T14:50:51;24.40;99.90
11666;DHT22;5889;51.350;6.708;2023-07-29T14:53:18;24.20;99.90
11666;DHT22;5889;51.350;6.708;2023-07-29T14:55:45;24.00;99.90
11666;DHT22;5889;51.350;6.708;2023-07-29T14:58:13;23.80;99.90
11666;DHT22;5889;51.350;6.708;2023-07-29T15:00:40;23.70;99.90
11666;DHT22;5889;51.350;6.708;2023-07-29T15:03:07;23.60;99.90
11666;DHT22;5889;51.350;6.708;2023-07-29T15:05:34;23.40;99.90
11666;DHT22;5889;51.350;6.708;2023-07-29T15:08:01;23.40;99.90
11666;DHT22;5889;51.350;6.708;2023-07-29T15:10:28;23.40;99.90
11666;DHT22;5889;51.350;6.708;2023-07-29T15:12:56;23.50;99.90
11666;DHT22;5889;51.350;6.708;2023-07-29T15:15:25;23.60;99.90
11666;DHT22;5889;51.350;6.708;2023-07-29T15:17:52;23.70;99.90
11666;DHT22;5889;51.350;6.708;2023-07-29T15:20:22;23.80;99.90
11666;DHT22;5889;51.350;6.708;2023-07-29T15:22:49;23.90;99.90
11666;DHT22;5889;51.350;6.708;2023-07-29T15:25:19;24.20;99.90
11666;DHT22;5889;51.350;6.708;2023-07-29T15:27:46;24.50;99.90
11666;DHT22;5889;51.350;6.708;2023-07-29T15:30:13;24.70;99.90
11666;DHT22;5889;51.350;6.708;2023-07-29T15:32:41;24.80;99.90
11666;DHT22;5889;51.350;6.708;2023-07-29T15:35:08;24.80;99.90
11666;DHT22;5889;51.350;6.708;2023-07-29T15:37:35;25.00;99.90
11666;DHT22;5889;51.350;6.708;2023-07-29T15:40:03;25.00;99.90
11666;DHT22;5889;51.350;6.708;2023-07-29T15:42:30;25.20;99.90
11666;DHT22;5889;51.350;6.708;2023-07-29T15:44:57;25.50;99.90
11666;DHT22;5889;51.350;6.708;2023-07-29T15:47:24;25.70;99.90
11666;DHT22;5889;51.350;6.708;2023-07-29T15:49:53;25.90;99.90